createdAt,value
2017-10-06T00:00:13.145Z,97033.86
2017-10-06T00:00:44.957Z,97037.69
2017-10-06T00:01:16.710Z,97036.39
2017-10-06T00:01:48.659Z,97030.03
2017-10-06T00:02:20.349Z,97044.55
2017-10-06T00:02:52.001Z,97040.73
2017-10-06T00:03:23.892Z,97042.42
2017-10-06T00:03:55.541Z,97036.06
2017-10-06T00:04:27.189Z,97036.09
2017-10-06T00:04:58.837Z,97042.03
2017-10-06T00:05:30.481Z,97042.09
2017-10-06T00:06:02.129Z,97041.63
2017-10-06T00:06:33.773Z,97035.23
2017-10-06T00:07:05.610Z,97037.41
2017-10-06T00:07:37.262Z,97049.28
2017-10-06T00:08:08.916Z,97042.05
2017-10-06T00:08:40.567Z,97038.70
2017-10-06T00:09:12.217Z,97041.28
2017-10-06T00:09:43.909Z,97042.55
2017-10-06T00:10:15.569Z,97042.97
2017-10-06T00:10:47.222Z,97037.05
2017-10-06T00:11:18.866Z,97040.08
2017-10-06T00:11:50.776Z,97040.09
2017-10-06T00:12:22.429Z,97046.13
2017-10-06T00:12:54.097Z,97054.63
2017-10-06T00:13:25.749Z,97039.69
2017-10-06T00:13:57.640Z,97048.69
2017-10-06T00:14:29.601Z,97041.05
2017-10-06T00:15:01.551Z,97037.20
2017-10-06T00:15:33.205Z,97045.31
2017-10-06T00:16:04.897Z,97039.41
2017-10-06T00:16:36.783Z,97048.34
2017-10-06T00:17:08.433Z,97052.17
2017-10-06T00:17:40.081Z,97055.16
2017-10-06T00:18:11.768Z,97053.03
2017-10-06T00:18:43.417Z,97046.23
2017-10-06T00:19:15.250Z,97047.52
2017-10-06T00:19:46.900Z,97056.05
2017-10-06T00:20:18.583Z,97051.00
2017-10-06T00:20:50.237Z,97052.31
2017-10-06T00:21:22.143Z,97048.12
2017-10-06T00:21:53.813Z,97051.09
2017-10-06T00:22:25.690Z,97059.59
2017-10-06T00:22:57.333Z,97058.32
2017-10-06T00:23:28.977Z,97050.69
2017-10-06T00:24:00.625Z,97053.66
2017-10-06T00:24:32.273Z,97063.00
2017-10-06T00:25:03.924Z,97053.25
2017-10-06T00:25:35.578Z,97051.52
2017-10-06T00:26:07.255Z,97056.63
2017-10-06T00:26:38.957Z,97060.47
2017-10-06T00:27:10.606Z,97046.44
2017-10-06T00:27:42.453Z,97054.97
2017-10-06T00:28:14.105Z,97057.98
2017-10-06T00:28:45.775Z,97057.59
2017-10-06T00:29:17.694Z,97058.05
2017-10-06T00:29:49.363Z,97045.77
2017-10-06T00:30:21.315Z,97054.27
2017-10-06T00:30:53.140Z,97060.64
2017-10-06T00:31:24.907Z,97058.52
2017-10-06T00:31:56.602Z,97060.22
2017-10-06T00:32:28.308Z,97051.30
2017-10-06T00:32:59.953Z,97053.84
2017-10-06T00:33:31.605Z,97049.97
2017-10-06T00:34:03.253Z,97054.27
2017-10-06T00:34:34.957Z,97058.52
2017-10-06T00:35:06.707Z,97061.52
2017-10-06T00:35:38.358Z,97057.27
2017-10-06T00:36:10.000Z,97058.56
2017-10-06T00:36:41.657Z,97059.41
2017-10-06T00:37:13.309Z,97056.50
2017-10-06T00:37:45.195Z,97053.09
2017-10-06T00:38:16.866Z,97055.66
2017-10-06T00:38:48.692Z,97058.65
2017-10-06T00:39:20.457Z,97051.84
2017-10-06T00:39:52.123Z,97061.20
2017-10-06T00:40:23.773Z,97051.00
2017-10-06T00:40:55.418Z,97056.54
2017-10-06T00:41:27.074Z,97066.37
2017-10-06T00:41:58.721Z,97058.28
2017-10-06T00:42:30.421Z,97062.56
2017-10-06T00:43:02.300Z,97058.72
2017-10-06T00:43:33.945Z,97054.93
2017-10-06T00:44:05.593Z,97057.90
2017-10-06T00:44:37.245Z,97060.89
2017-10-06T00:45:09.132Z,97053.66
2017-10-06T00:45:40.974Z,97063.42
2017-10-06T00:46:12.723Z,97058.34
2017-10-06T00:46:44.373Z,97067.68
2017-10-06T00:47:16.013Z,97056.67
2017-10-06T00:47:47.699Z,97078.80
2017-10-06T00:48:19.345Z,97068.16
2017-10-06T00:48:50.993Z,97071.98
2017-10-06T00:49:22.837Z,97073.19
2017-10-06T00:49:54.830Z,97074.86
2017-10-06T00:50:26.658Z,97073.59
2017-10-06T00:50:58.422Z,97063.80
2017-10-06T00:51:30.074Z,97066.74
2017-10-06T00:52:01.722Z,97067.16
2017-10-06T00:52:33.365Z,97062.91
2017-10-06T00:53:05.013Z,97057.81
2017-10-06T00:53:36.661Z,97064.61
2017-10-06T00:54:08.579Z,97059.91
2017-10-06T00:54:40.229Z,97060.78
2017-10-06T00:55:11.873Z,97065.03
2017-10-06T00:55:43.525Z,97069.71
2017-10-06T00:56:15.173Z,97073.52
2017-10-06T00:56:46.817Z,97058.20
2017-10-06T00:57:18.465Z,97057.00
2017-10-06T00:57:50.113Z,97058.23
2017-10-06T00:58:21.762Z,97060.77
2017-10-06T00:58:53.414Z,97059.78
2017-10-06T00:59:25.258Z,97061.41
2017-10-06T00:59:56.965Z,97067.28
2017-10-06T01:00:28.609Z,97063.42
2017-10-06T01:01:00.257Z,97065.47
2017-10-06T01:01:31.909Z,97059.46
2017-10-06T01:02:03.557Z,97061.95
2017-10-06T01:02:35.213Z,97059.35
2017-10-06T01:03:06.861Z,97061.09
2017-10-06T01:03:38.518Z,97056.78
2017-10-06T01:04:10.171Z,97060.61
2017-10-06T01:04:42.034Z,97058.50
2017-10-06T01:05:13.984Z,97064.88
2017-10-06T01:05:45.633Z,97061.09
2017-10-06T01:06:17.282Z,97064.02
2017-10-06T01:06:48.929Z,97061.05
2017-10-06T01:07:20.577Z,97056.36
2017-10-06T01:07:52.226Z,97054.72
2017-10-06T01:08:23.873Z,97050.91
2017-10-06T01:08:55.674Z,97056.03
2017-10-06T01:09:27.428Z,97053.08
2017-10-06T01:09:59.081Z,97059.55
2017-10-06T01:10:30.974Z,97057.90
2017-10-06T01:11:02.625Z,97056.20
2017-10-06T01:11:34.298Z,97055.80
2017-10-06T01:12:05.949Z,97060.92
2017-10-06T01:12:37.597Z,97056.31
2017-10-06T01:13:09.245Z,97056.33
2017-10-06T01:13:40.901Z,97063.61
2017-10-06T01:14:12.545Z,97061.45
2017-10-06T01:14:44.189Z,97058.53
2017-10-06T01:15:15.837Z,97051.33
2017-10-06T01:15:47.745Z,97054.73
2017-10-06T01:16:19.393Z,97058.56
2017-10-06T01:16:51.041Z,97054.35
2017-10-06T01:17:22.688Z,97052.67
2017-10-06T01:17:54.381Z,97052.71
2017-10-06T01:18:26.258Z,97051.84
2017-10-06T01:18:57.911Z,97056.54
2017-10-06T01:19:29.562Z,97048.52
2017-10-06T01:20:01.214Z,97054.47
2017-10-06T01:20:32.858Z,97058.31
2017-10-06T01:21:04.507Z,97056.19
2017-10-06T01:21:36.153Z,97057.95
2017-10-06T01:22:07.801Z,97052.37
2017-10-06T01:22:39.589Z,97055.40
2017-10-06T01:23:11.343Z,97057.11
2017-10-06T01:23:43.291Z,97055.42
2017-10-06T01:24:14.941Z,97053.73
2017-10-06T01:24:46.591Z,97055.85
2017-10-06T01:25:18.238Z,97056.70
2017-10-06T01:25:49.925Z,97053.72
2017-10-06T01:26:21.728Z,97052.45
2017-10-06T01:26:53.378Z,97058.84
2017-10-06T01:27:25.029Z,97051.17
2017-10-06T01:27:56.677Z,97057.13
2017-10-06T01:28:28.328Z,97055.78
2017-10-06T01:28:59.977Z,97050.69
2017-10-06T01:29:31.658Z,97057.46
2017-10-06T01:30:03.611Z,97057.86
2017-10-06T01:30:35.260Z,97051.44
2017-10-06T01:31:07.199Z,97053.95
2017-10-06T01:31:38.849Z,97049.69
2017-10-06T01:32:10.494Z,97043.73
2017-10-06T01:32:42.145Z,97057.70
2017-10-06T01:33:13.791Z,97054.28
2017-10-06T01:33:45.432Z,97052.17
2017-10-06T01:34:17.078Z,97055.14
2017-10-06T01:34:48.725Z,97053.03
2017-10-06T01:35:20.369Z,97059.38
2017-10-06T01:35:52.018Z,97055.12
2017-10-06T01:36:23.665Z,97047.42
2017-10-06T01:36:55.317Z,97050.35
2017-10-06T01:37:27.120Z,97043.89
2017-10-06T01:37:58.769Z,97054.93
2017-10-06T01:38:30.415Z,97057.90
2017-10-06T01:39:02.078Z,97051.96
2017-10-06T01:39:33.725Z,97047.71
2017-10-06T01:40:05.382Z,97050.69
2017-10-06T01:40:37.042Z,97049.39
2017-10-06T01:41:08.704Z,97064.65
2017-10-06T01:41:40.654Z,97059.59
2017-10-06T01:42:12.300Z,97057.85
2017-10-06T01:42:43.949Z,97059.13
2017-10-06T01:43:15.592Z,97059.97
2017-10-06T01:43:47.238Z,97055.70
2017-10-06T01:44:18.891Z,97056.54
2017-10-06T01:44:50.540Z,97056.03
2017-10-06T01:45:22.345Z,97061.14
2017-10-06T01:45:54.094Z,97055.59
2017-10-06T01:46:25.970Z,97057.30
2017-10-06T01:46:57.665Z,97052.94
2017-10-06T01:47:29.349Z,97054.30
2017-10-06T01:48:00.989Z,97058.13
2017-10-06T01:48:32.633Z,97060.27
2017-10-06T01:49:04.281Z,97051.68
2017-10-06T01:49:35.928Z,97051.22
2017-10-06T01:50:07.845Z,97041.37
2017-10-06T01:50:39.494Z,97052.78
2017-10-06T01:51:11.145Z,97051.06
2017-10-06T01:51:42.793Z,97042.99
2017-10-06T01:52:14.451Z,97045.55
2017-10-06T01:52:46.326Z,97042.97
2017-10-06T01:53:18.000Z,97036.66
2017-10-06T01:53:49.952Z,97041.72
2017-10-06T01:54:21.601Z,97044.67
2017-10-06T01:54:53.543Z,97050.61
2017-10-06T01:55:25.492Z,97050.70
2017-10-06T01:55:57.141Z,97043.85
2017-10-06T01:56:28.784Z,97044.27
2017-10-06T01:57:00.433Z,97056.59
2017-10-06T01:57:32.077Z,97054.48
2017-10-06T01:58:04.010Z,97050.19
2017-10-06T01:58:35.657Z,97048.52
2017-10-06T01:59:07.310Z,97048.15
2017-10-06T01:59:38.977Z,97050.65
2017-10-06T02:00:10.630Z,97053.25
2017-10-06T02:00:42.529Z,97048.95
2017-10-06T02:01:14.177Z,97058.30
2017-10-06T02:01:45.834Z,97048.91
2017-10-06T02:02:17.477Z,97052.33
2017-10-06T02:02:49.125Z,97048.09
2017-10-06T02:03:20.770Z,97055.33
2017-10-06T02:03:52.417Z,97050.70
2017-10-06T02:04:24.065Z,97044.34
2017-10-06T02:04:55.966Z,97050.73
2017-10-06T02:05:27.617Z,97053.72
2017-10-06T02:05:59.462Z,97051.59
2017-10-06T02:06:31.200Z,97049.04
2017-10-06T02:07:02.853Z,97041.37
2017-10-06T02:07:34.498Z,97049.09
2017-10-06T02:08:06.141Z,97051.17
2017-10-06T02:08:37.785Z,97034.64
2017-10-06T02:09:09.429Z,97038.91
2017-10-06T02:09:41.073Z,97047.86
2017-10-06T02:10:12.721Z,97047.44
2017-10-06T02:10:44.373Z,97047.88
2017-10-06T02:11:16.026Z,97041.14
2017-10-06T02:11:47.924Z,97038.99
2017-10-06T02:12:19.876Z,97043.69
2017-10-06T02:12:51.717Z,97037.31
2017-10-06T02:13:23.468Z,97044.13
2017-10-06T02:13:55.138Z,97036.06
2017-10-06T02:14:26.786Z,97037.77
2017-10-06T02:14:58.437Z,97034.44
2017-10-06T02:15:30.099Z,97039.12
2017-10-06T02:16:01.984Z,97036.22
2017-10-06T02:16:33.677Z,97034.94
2017-10-06T02:17:05.325Z,97038.78
2017-10-06T02:17:36.972Z,97033.69
2017-10-06T02:18:08.859Z,97035.39
2017-10-06T02:18:40.510Z,97031.20
2017-10-06T02:19:12.168Z,97036.69
2017-10-06T02:19:43.858Z,97023.93
2017-10-06T02:20:15.733Z,97032.47
2017-10-06T02:20:47.384Z,97021.00
2017-10-06T02:21:19.029Z,97026.16
2017-10-06T02:21:50.707Z,97034.31
2017-10-06T02:22:22.365Z,97024.07
2017-10-06T02:22:54.057Z,97028.75
2017-10-06T02:23:25.713Z,97030.47
2017-10-06T02:23:57.361Z,97019.42
2017-10-06T02:24:29.009Z,97025.78
2017-10-06T02:25:00.661Z,97035.50
2017-10-06T02:25:32.310Z,97021.47
2017-10-06T02:26:04.101Z,97015.53
2017-10-06T02:26:35.754Z,97024.88
2017-10-06T02:27:07.445Z,97020.27
2017-10-06T02:27:39.101Z,97027.06
2017-10-06T02:28:10.976Z,97031.33
2017-10-06T02:28:42.678Z,97035.98
2017-10-06T02:29:14.519Z,97027.91
2017-10-06T02:29:46.168Z,97029.20
2017-10-06T02:30:17.851Z,97023.25
2017-10-06T02:30:49.688Z,97030.14
2017-10-06T02:31:21.441Z,97022.05
2017-10-06T02:31:53.104Z,97019.52
2017-10-06T02:32:24.758Z,97024.63
2017-10-06T02:32:56.609Z,97015.28
2017-10-06T02:33:28.258Z,97012.78
2017-10-06T02:33:59.959Z,97019.97
2017-10-06T02:34:31.609Z,97017.00
2017-10-06T02:35:03.258Z,97010.25
2017-10-06T02:35:34.913Z,97004.30
2017-10-06T02:36:06.561Z,97011.51
2017-10-06T02:36:38.449Z,97005.15
2017-10-06T02:37:10.114Z,97003.44
2017-10-06T02:37:41.788Z,97000.05
2017-10-06T02:38:13.454Z,97011.11
2017-10-06T02:38:45.098Z,97008.95
2017-10-06T02:39:16.998Z,97004.71
2017-10-06T02:39:48.646Z,97017.00
2017-10-06T02:40:20.290Z,97012.30
2017-10-06T02:40:51.942Z,97005.06
2017-10-06T02:41:23.589Z,97003.78
2017-10-06T02:41:55.273Z,97012.27
2017-10-06T02:42:27.151Z,97003.33
2017-10-06T02:42:59.029Z,97001.58
2017-10-06T02:43:30.685Z,97011.35
2017-10-06T02:44:02.338Z,96997.72
2017-10-06T02:44:34.029Z,96997.09
2017-10-06T02:45:05.677Z,97001.99
2017-10-06T02:45:37.322Z,97003.29
2017-10-06T02:46:08.970Z,97002.09
2017-10-06T02:46:40.614Z,96999.64
2017-10-06T02:47:12.258Z,97000.16
2017-10-06T02:47:43.909Z,96996.86
2017-10-06T02:48:15.556Z,97002.82
2017-10-06T02:48:47.385Z,96995.61
2017-10-06T02:49:19.107Z,97007.09
2017-10-06T02:49:50.952Z,96996.48
2017-10-06T02:50:22.605Z,96994.42
2017-10-06T02:50:54.650Z,96994.45
2017-10-06T02:51:26.300Z,96997.52
2017-10-06T02:51:57.949Z,96998.36
2017-10-06T02:52:29.593Z,97001.78
2017-10-06T02:53:01.242Z,97000.55
2017-10-06T02:53:32.912Z,97004.40
2017-10-06T02:54:04.566Z,97001.87
2017-10-06T02:54:36.253Z,96997.53
2017-10-06T02:55:07.902Z,96997.52
2017-10-06T02:55:39.554Z,96994.98
2017-10-06T02:56:11.202Z,96992.85
2017-10-06T02:56:43.019Z,96998.02
2017-10-06T02:57:14.867Z,97002.22
2017-10-06T02:57:46.517Z,96991.66
2017-10-06T02:58:18.165Z,97004.85
2017-10-06T02:58:49.817Z,97000.61
2017-10-06T02:59:21.465Z,96992.59
2017-10-06T02:59:53.113Z,97001.50
2017-10-06T03:00:24.765Z,96999.38
2017-10-06T03:00:56.416Z,97002.81
2017-10-06T03:01:28.113Z,97016.38
2017-10-06T03:01:59.757Z,96992.61
2017-10-06T03:02:31.405Z,96994.32
2017-10-06T03:03:03.050Z,96998.97
2017-10-06T03:03:34.701Z,96995.12
2017-10-06T03:04:06.519Z,96992.15
2017-10-06T03:04:38.193Z,97000.61
2017-10-06T03:05:09.841Z,97000.22
2017-10-06T03:05:41.490Z,96995.51
2017-10-06T03:06:13.145Z,96992.15
2017-10-06T03:06:45.136Z,96995.12
2017-10-06T03:07:16.786Z,96996.34
2017-10-06T03:07:48.433Z,96998.06
2017-10-06T03:08:20.085Z,96996.84
2017-10-06T03:08:51.729Z,96995.55
2017-10-06T03:09:23.376Z,96991.69
2017-10-06T03:09:55.029Z,96994.70
2017-10-06T03:10:26.677Z,96992.15
2017-10-06T03:10:58.331Z,96990.41
2017-10-06T03:11:30.033Z,96994.23
2017-10-06T03:12:01.682Z,96989.13
2017-10-06T03:12:33.329Z,96994.70
2017-10-06T03:13:05.013Z,97000.22
2017-10-06T03:13:36.788Z,96986.58
2017-10-06T03:14:08.438Z,96986.58
2017-10-06T03:14:40.090Z,96987.42
2017-10-06T03:15:11.734Z,96994.63
2017-10-06T03:15:43.385Z,96989.94
2017-10-06T03:16:15.025Z,96990.73
2017-10-06T03:16:46.713Z,96987.71
2017-10-06T03:17:18.552Z,96995.73
2017-10-06T03:17:50.198Z,96990.17
2017-10-06T03:18:21.850Z,96990.16
2017-10-06T03:18:53.513Z,96992.23
2017-10-06T03:19:25.210Z,96988.41
2017-10-06T03:19:57.101Z,96984.63
2017-10-06T03:20:28.750Z,96988.41
2017-10-06T03:21:00.409Z,96983.73
2017-10-06T03:21:32.059Z,96988.39
2017-10-06T03:22:03.980Z,96986.17
2017-10-06T03:22:35.630Z,96989.91
2017-10-06T03:23:07.282Z,96982.64
2017-10-06T03:23:38.925Z,96985.61
2017-10-06T03:24:10.589Z,96983.05
2017-10-06T03:24:42.237Z,96981.73
2017-10-06T03:25:13.897Z,96982.56
2017-10-06T03:25:45.777Z,96987.21
2017-10-06T03:26:17.470Z,96975.51
2017-10-06T03:26:49.117Z,96984.26
2017-10-06T03:27:20.764Z,96984.61
2017-10-06T03:27:52.621Z,96982.05
2017-10-06T03:28:24.296Z,96986.70
2017-10-06T03:28:56.068Z,96979.48
2017-10-06T03:29:28.727Z,96979.89
2017-10-06T03:30:00.374Z,96976.41
2017-10-06T03:30:32.021Z,96981.47
2017-10-06T03:31:03.669Z,96981.80
2017-10-06T03:31:35.373Z,96976.19
2017-10-06T03:32:07.026Z,96976.61
2017-10-06T03:32:38.689Z,96976.97
2017-10-06T03:33:10.331Z,96976.61
2017-10-06T03:33:41.976Z,96978.72
2017-10-06T03:34:13.625Z,96972.78
2017-10-06T03:34:45.273Z,96982.55
2017-10-06T03:35:16.921Z,96980.44
2017-10-06T03:35:48.570Z,96976.61
2017-10-06T03:36:20.213Z,96984.28
2017-10-06T03:36:52.097Z,96970.27
2017-10-06T03:37:23.769Z,96983.52
2017-10-06T03:37:55.419Z,96980.13
2017-10-06T03:38:27.061Z,96983.08
2017-10-06T03:38:58.708Z,96977.90
2017-10-06T03:39:30.349Z,96983.82
2017-10-06T03:40:01.993Z,96979.58
2017-10-06T03:40:33.633Z,96981.29
2017-10-06T03:41:05.281Z,96979.59
2017-10-06T03:41:36.929Z,96989.27
2017-10-06T03:42:08.580Z,96988.02
2017-10-06T03:42:40.230Z,96988.02
2017-10-06T03:43:12.113Z,96981.64
2017-10-06T03:43:44.063Z,96977.44
2017-10-06T03:44:15.770Z,96985.95
2017-10-06T03:44:47.653Z,96975.34
2017-10-06T03:45:19.495Z,96981.31
2017-10-06T03:45:51.245Z,96979.25
2017-10-06T03:46:22.897Z,96978.84
2017-10-06T03:46:54.545Z,96980.58
2017-10-06T03:47:26.193Z,96990.78
2017-10-06T03:47:57.833Z,96986.62
2017-10-06T03:48:29.487Z,96984.94
2017-10-06T03:49:01.129Z,96990.09
2017-10-06T03:49:32.829Z,96990.46
2017-10-06T03:50:04.682Z,96980.21
2017-10-06T03:50:36.345Z,96981.00
2017-10-06T03:51:08.005Z,96984.79
2017-10-06T03:51:39.653Z,96991.20
2017-10-06T03:52:11.299Z,96991.68
2017-10-06T03:52:42.950Z,96984.46
2017-10-06T03:53:14.597Z,96983.11
2017-10-06T03:53:46.248Z,96992.05
2017-10-06T03:54:18.093Z,96988.75
2017-10-06T03:54:49.797Z,96989.60
2017-10-06T03:55:21.441Z,96995.55
2017-10-06T03:55:53.360Z,96994.28
2017-10-06T03:56:25.187Z,96988.84
2017-10-06T03:56:56.954Z,96985.88
2017-10-06T03:57:28.600Z,96988.48
2017-10-06T03:58:00.433Z,96993.53
2017-10-06T03:58:32.189Z,96985.97
2017-10-06T03:59:03.837Z,96989.87
2017-10-06T03:59:35.492Z,96992.79
2017-10-06T04:00:07.376Z,96995.34
2017-10-06T04:00:39.061Z,96994.95
2017-10-06T04:01:10.713Z,96991.98
2017-10-06T04:01:42.398Z,96993.28
2017-10-06T04:02:14.041Z,96995.83
2017-10-06T04:02:45.693Z,96996.27
2017-10-06T04:03:17.345Z,96995.83
2017-10-06T04:03:49.219Z,96994.12
2017-10-06T04:04:20.874Z,96994.55
2017-10-06T04:04:52.517Z,96996.27
2017-10-06T04:05:24.161Z,96991.19
2017-10-06T04:05:55.809Z,96998.03
2017-10-06T04:06:27.457Z,96998.89
2017-10-06T04:06:59.378Z,96994.58
2017-10-06T04:07:31.204Z,97000.44
2017-10-06T04:08:02.969Z,96998.69
2017-10-06T04:08:34.852Z,96997.37
2017-10-06T04:09:06.498Z,96999.48
2017-10-06T04:09:38.145Z,96997.70
2017-10-06T04:10:10.151Z,97001.52
2017-10-06T04:10:41.802Z,96992.64
2017-10-06T04:11:13.453Z,96998.58
2017-10-06T04:11:45.105Z,97004.14
2017-10-06T04:12:16.793Z,96998.20
2017-10-06T04:12:48.667Z,96994.81
2017-10-06T04:13:20.317Z,96996.51
2017-10-06T04:13:51.971Z,97000.34
2017-10-06T04:14:23.622Z,97001.61
2017-10-06T04:14:55.271Z,96999.45
2017-10-06T04:15:26.933Z,96996.05
2017-10-06T04:15:58.826Z,97003.27
2017-10-06T04:16:30.477Z,97002.84
2017-10-06T04:17:02.125Z,97002.89
2017-10-06T04:17:33.776Z,97007.97
2017-10-06T04:18:05.425Z,96997.75
2017-10-06T04:18:37.073Z,96997.33
2017-10-06T04:19:08.720Z,96990.44
2017-10-06T04:19:40.369Z,96995.56
2017-10-06T04:20:12.021Z,96997.26
2017-10-06T04:20:43.865Z,97001.14
2017-10-06T04:21:15.553Z,97001.08
2017-10-06T04:21:47.201Z,97007.52
2017-10-06T04:22:18.853Z,96996.05
2017-10-06T04:22:50.497Z,97000.30
2017-10-06T04:23:22.149Z,96993.50
2017-10-06T04:23:53.797Z,97003.70
2017-10-06T04:24:25.445Z,96998.58
2017-10-06T04:24:57.092Z,97002.45
2017-10-06T04:25:28.744Z,97004.55
2017-10-06T04:26:00.449Z,96996.91
2017-10-06T04:26:32.099Z,96997.33
2017-10-06T04:27:03.745Z,96997.34
2017-10-06T04:27:35.389Z,97002.09
2017-10-06T04:28:07.034Z,96998.03
2017-10-06T04:28:38.677Z,96994.38
2017-10-06T04:29:10.321Z,96996.07
2017-10-06T04:29:41.966Z,97004.13
2017-10-06T04:30:13.613Z,96996.92
2017-10-06T04:30:45.268Z,97004.23
2017-10-06T04:31:17.056Z,97001.68
2017-10-06T04:31:48.705Z,97000.39
2017-10-06T04:32:20.360Z,97008.43
2017-10-06T04:32:52.001Z,97004.22
2017-10-06T04:33:23.649Z,97006.78
2017-10-06T04:33:55.297Z,97002.61
2017-10-06T04:34:26.947Z,97001.33
2017-10-06T04:34:58.594Z,97006.45
2017-10-06T04:35:30.249Z,97007.30
2017-10-06T04:36:01.894Z,97005.16
2017-10-06T04:36:33.598Z,97004.27
2017-10-06T04:37:05.241Z,97000.83
2017-10-06T04:37:36.893Z,97005.48
2017-10-06T04:38:08.545Z,97010.59
2017-10-06T04:38:40.201Z,97006.82
2017-10-06T04:39:11.857Z,97005.09
2017-10-06T04:39:43.633Z,97010.28
2017-10-06T04:40:15.285Z,97009.91
2017-10-06T04:40:46.938Z,97011.16
2017-10-06T04:41:18.581Z,97014.63
2017-10-06T04:41:50.508Z,97009.98
2017-10-06T04:42:22.158Z,97012.95
2017-10-06T04:42:53.809Z,97014.25
2017-10-06T04:43:25.453Z,97017.27
2017-10-06T04:43:57.106Z,97010.84
2017-10-06T04:44:28.753Z,97012.98
2017-10-06T04:45:00.437Z,97007.53
2017-10-06T04:45:32.308Z,97016.96
2017-10-06T04:46:03.965Z,97014.83
2017-10-06T04:46:35.613Z,97013.13
2017-10-06T04:47:07.261Z,97008.48
2017-10-06T04:47:38.913Z,97008.95
2017-10-06T04:48:10.562Z,97015.35
2017-10-06T04:48:42.209Z,97006.02
2017-10-06T04:49:13.862Z,97019.63
2017-10-06T04:49:45.554Z,97011.98
2017-10-06T04:50:17.241Z,97006.05
2017-10-06T04:50:48.889Z,97010.34
2017-10-06T04:51:20.537Z,97010.36
2017-10-06T04:51:52.319Z,97011.23
2017-10-06T04:52:24.268Z,97005.67
2017-10-06T04:52:55.921Z,97012.07
2017-10-06T04:53:27.569Z,97009.95
2017-10-06T04:53:59.209Z,97008.31
2017-10-06T04:54:30.857Z,97017.23
2017-10-06T04:55:02.512Z,97010.45
2017-10-06T04:55:34.165Z,97002.80
2017-10-06T04:56:05.827Z,97006.20
2017-10-06T04:56:37.603Z,97015.16
2017-10-06T04:57:09.352Z,97011.32
2017-10-06T04:57:41.041Z,97008.33
2017-10-06T04:58:12.693Z,97012.17
2017-10-06T04:58:44.341Z,97010.86
2017-10-06T04:59:15.994Z,97011.70
2017-10-06T04:59:47.681Z,97011.70
2017-10-06T05:00:19.329Z,97011.28
2017-10-06T05:00:50.989Z,96996.00
2017-10-06T05:01:22.633Z,97010.46
2017-10-06T05:01:54.284Z,97005.78
2017-10-06T05:02:26.078Z,97009.62
2017-10-06T05:02:57.942Z,96998.58
2017-10-06T05:03:29.595Z,97010.53
2017-10-06T05:04:01.245Z,97014.31
2017-10-06T05:04:32.893Z,97010.53
2017-10-06T05:05:04.537Z,97013.03
2017-10-06T05:05:36.192Z,97010.88
2017-10-06T05:06:07.845Z,97013.44
2017-10-06T05:06:39.519Z,97014.28
2017-10-06T05:07:11.383Z,97008.26
2017-10-06T05:07:43.037Z,97015.89
2017-10-06T05:08:14.689Z,97013.75
2017-10-06T05:08:46.333Z,97011.32
2017-10-06T05:09:17.983Z,97012.36
2017-10-06T05:09:49.638Z,97015.34
2017-10-06T05:10:21.318Z,97009.77
2017-10-06T05:10:52.975Z,97007.19
2017-10-06T05:11:24.625Z,97009.23
2017-10-06T05:11:56.273Z,97009.20
2017-10-06T05:12:27.989Z,97008.34
2017-10-06T05:12:59.653Z,97016.77
2017-10-06T05:13:31.303Z,97015.05
2017-10-06T05:14:02.952Z,97015.91
2017-10-06T05:14:34.599Z,97017.97
2017-10-06T05:15:06.406Z,97009.42
2017-10-06T05:15:38.060Z,97008.05
2017-10-06T05:16:09.709Z,97011.87
2017-10-06T05:16:41.357Z,97014.33
2017-10-06T05:17:13.010Z,97010.09
2017-10-06T05:17:44.693Z,97018.09
2017-10-06T05:18:16.564Z,97013.83
2017-10-06T05:18:48.212Z,97013.31
2017-10-06T05:19:19.863Z,97015.87
2017-10-06T05:19:51.522Z,97020.88
2017-10-06T05:20:23.165Z,97018.38
2017-10-06T05:20:54.828Z,97016.64
2017-10-06T05:21:26.474Z,97019.56
2017-10-06T05:21:58.117Z,97014.48
2017-10-06T05:22:30.008Z,97017.52
2017-10-06T05:23:01.657Z,97014.09
2017-10-06T05:23:33.318Z,97013.70
2017-10-06T05:24:04.966Z,97017.89
2017-10-06T05:24:36.613Z,97019.55
2017-10-06T05:25:08.271Z,97017.00
2017-10-06T05:25:39.920Z,97023.33
2017-10-06T05:26:11.801Z,97017.77
2017-10-06T05:26:43.573Z,97018.52
2017-10-06T05:27:15.226Z,97024.47
2017-10-06T05:27:47.040Z,97025.41
2017-10-06T05:28:18.689Z,97021.59
2017-10-06T05:28:50.337Z,97020.25
2017-10-06T05:29:21.989Z,97018.60
2017-10-06T05:29:53.812Z,97017.75
2017-10-06T05:30:25.557Z,97016.92
2017-10-06T05:30:57.208Z,97024.16
2017-10-06T05:31:29.110Z,97013.56
2017-10-06T05:32:00.762Z,97019.08
2017-10-06T05:32:32.739Z,97021.68
2017-10-06T05:33:04.688Z,97022.88
2017-10-06T05:33:36.340Z,97013.98
2017-10-06T05:34:07.985Z,97019.50
2017-10-06T05:34:39.821Z,97016.53
2017-10-06T05:35:11.477Z,97019.48
2017-10-06T05:35:43.125Z,97018.63
2017-10-06T05:36:14.778Z,97027.98
2017-10-06T05:36:46.437Z,97021.19
2017-10-06T05:37:18.130Z,97022.48
2017-10-06T05:37:49.778Z,97025.88
2017-10-06T05:38:21.465Z,97020.42
2017-10-06T05:38:53.109Z,97028.08
2017-10-06T05:39:24.758Z,97029.78
2017-10-06T05:39:56.648Z,97028.52
2017-10-06T05:40:28.305Z,97026.41
2017-10-06T05:40:59.953Z,97032.34
2017-10-06T05:41:31.880Z,97032.75
2017-10-06T05:42:03.573Z,97028.50
2017-10-06T05:42:35.399Z,97025.97
2017-10-06T05:43:07.047Z,97025.98
2017-10-06T05:43:38.693Z,97032.84
2017-10-06T05:44:10.341Z,97038.41
2017-10-06T05:44:42.039Z,97038.50
2017-10-06T05:45:13.691Z,97036.04
2017-10-06T05:45:45.341Z,97040.72
2017-10-06T05:46:16.989Z,97037.38
2017-10-06T05:46:48.868Z,97041.23
2017-10-06T05:47:20.509Z,97041.25
2017-10-06T05:47:52.152Z,97035.77
2017-10-06T05:48:23.845Z,97030.69
2017-10-06T05:48:55.497Z,97041.73
2017-10-06T05:49:27.145Z,97038.78
2017-10-06T05:49:58.968Z,97041.41
2017-10-06T05:50:30.618Z,97042.63
2017-10-06T05:51:02.261Z,97041.41
2017-10-06T05:51:33.913Z,97036.69
2017-10-06T05:52:05.561Z,97039.22
2017-10-06T05:52:37.201Z,97041.79
2017-10-06T05:53:08.849Z,97038.80
2017-10-06T05:53:40.538Z,97040.08
2017-10-06T05:54:12.237Z,97037.16
2017-10-06T05:54:43.884Z,97034.61
2017-10-06T05:55:15.533Z,97043.98
2017-10-06T05:55:47.181Z,97039.73
2017-10-06T05:56:18.834Z,97042.37
2017-10-06T05:56:50.724Z,97037.70
2017-10-06T05:57:22.373Z,97039.39
2017-10-06T05:57:54.026Z,97043.66
2017-10-06T05:58:25.669Z,97041.55
2017-10-06T05:58:57.317Z,97038.16
2017-10-06T05:59:29.201Z,97046.23
2017-10-06T06:00:00.882Z,97044.59
2017-10-06T06:00:32.723Z,97039.92
2017-10-06T06:01:04.473Z,97038.64
2017-10-06T06:01:36.129Z,97042.45
2017-10-06T06:02:07.777Z,97046.23
2017-10-06T06:02:39.460Z,97036.86
2017-10-06T06:03:11.348Z,97044.95
2017-10-06T06:03:43.011Z,97044.19
2017-10-06T06:04:14.660Z,97045.02
2017-10-06T06:04:46.310Z,97039.92
2017-10-06T06:05:17.965Z,97047.22
2017-10-06T06:05:49.618Z,97046.31
2017-10-06T06:06:21.506Z,97041.65
2017-10-06T06:06:53.158Z,97038.23
2017-10-06T06:07:24.813Z,97043.31
2017-10-06T06:07:56.456Z,97045.88
2017-10-06T06:08:28.113Z,97054.37
2017-10-06T06:08:59.765Z,97046.73
2017-10-06T06:09:31.506Z,97048.43
2017-10-06T06:10:03.162Z,97048.43
2017-10-06T06:10:34.813Z,97045.88
2017-10-06T06:11:06.594Z,97045.04
2017-10-06T06:11:38.258Z,97046.31
2017-10-06T06:12:09.909Z,97050.91